Time;durP1;ratioP1;P1;durP2;ratioP2;P2;SDS_P1;SDS_P2;PMS_P1;PMS_P2;Temp;Humidity;BMP_temperature;BMP_pressure;BME280_temperature;BME280_humidity;BME280_pressure;Samples;Min_cycle;Max_cycle;Signal;HPM_P1;HPM_P2
2022/10/02 00:06:06;;;;;;;0.30;0.30;;;;;;;15.49;62.82;100229.84;18432772;32;20495;-56
2022/10/02 00:16:19;;;;;;;0.30;0.30;;;;;;;15.73;62.07;100224.88;18430760;32;20073;-56
2022/10/02 00:26:24;;;;;;;0.25;0.25;;;;;;;15.77;61.35;100230.91;18430815;32;20133;-56
2022/10/02 00:36:39;;;;;;;0.30;0.30;;;;;;;16.14;59.68;100247.50;18431403;32;20151;-56
2022/10/02 00:46:48;;;;;;;0.30;0.30;;;;;;;16.32;59.06;100268.06;18430018;32;20085;-56
2022/10/02 00:57:01;;;;;;;0.20;0.20;;;;;;;16.55;58.15;100290.25;18428825;32;20088;-56
2022/10/02 01:07:08;;;;;;;0.30;0.30;;;;;;;16.40;58.60;100296.81;18428376;32;20088;-56
2022/10/02 01:17:23;;;;;;;0.30;0.30;;;;;;;16.52;58.42;100297.38;18427829;32;20097;-57
2022/10/02 01:27:28;;;;;;;0.30;0.30;;;;;;;16.14;60.24;100287.00;18430869;32;20445;-56
2022/10/02 01:37:33;;;;;;;0.20;0.20;;;;;;;16.26;60.75;100312.13;18436093;32;20112;-56
2022/10/02 01:47:42;;;;;;;0.20;0.20;;;;;;;15.93;61.40;100334.94;18436054;32;20366;-56
2022/10/02 01:57:56;;;;;;;0.20;0.20;;;;;;;15.83;62.12;100349.16;18435411;32;20696;-56
2022/10/02 02:08:07;;;;;;;0.30;0.30;;;;;;;15.82;62.49;100350.06;18435094;32;20382;-56
2022/10/02 02:18:12;;;;;;;0.30;0.30;;;;;;;15.84;62.07;100366.72;18434899;32;20095;-56
2022/10/02 02:28:18;;;;;;;0.30;0.30;;;;;;;15.84;62.75;100379.00;18434954;32;20649;-56
2022/10/02 02:38:26;;;;;;;0.30;0.30;;;;;;;15.59;63.25;100385.72;18433945;32;20092;-56
2022/10/02 02:48:35;;;;;;;0.35;0.35;;;;;;;15.92;63.10;100390.25;18433888;32;20403;-56
2022/10/02 02:58:42;;;;;;;0.25;0.25;;;;;;;15.91;64.45;100405.16;18433405;32;20101;-56
2022/10/02 03:08:50;;;;;;;0.30;0.30;;;;;;;16.01;64.37;100426.00;18433416;32;20097;-56
2022/10/02 03:19:03;;;;;;;0.30;0.30;;;;;;;15.80;65.07;100429.09;18433082;32;20084;-56
2022/10/02 03:29:12;;;;;;;0.20;0.20;;;;;;;15.88;63.87;100431.53;18432951;32;20092;-56
2022/10/02 03:39:15;;;;;;;0.30;0.30;;;;;;;16.00;63.21;100440.06;18432586;32;20089;-56
2022/10/02 03:49:29;;;;;;;0.30;0.30;;;;;;;15.73;63.33;100447.69;18431283;32;20127;-56
2022/10/02 03:59:38;;;;;;;0.30;0.30;;;;;;;16.25;62.78;100458.75;18432804;32;20119;-58
2022/10/02 04:09:47;;;;;;;0.30;0.30;;;;;;;15.70;63.73;100464.44;18431531;32;20346;-58
2022/10/02 04:19:53;;;;;;;0.20;0.20;;;;;;;15.46;64.47;100466.69;18431151;32;20472;-56
2022/10/02 04:30:00;;;;;;;0.30;0.30;;;;;;;15.66;61.21;100475.91;18430909;32;20377;-56
2022/10/02 04:40:28;;;;;;;0.20;0.20;;;;;;;15.88;60.19;100497.34;18430306;32;20089;-56
2022/10/02 04:50:44;;;;;;;0.20;0.20;;;;;;;16.02;59.93;100517.25;18427661;32;20144;-56
2022/10/02 05:00:51;;;;;;;0.20;0.20;;;;;;;16.18;59.20;100523.88;18430469;32;20097;-56
2022/10/02 05:11:05;;;;;;;0.20;0.20;;;;;;;15.81;59.69;100538.75;18437932;32;20428;-56
2022/10/02 05:21:20;;;;;;;0.20;0.20;;;;;;;16.12;59.03;100553.00;18437747;32;20089;-56
2022/10/02 05:31:32;;;;;;;0.28;0.28;;;;;;;16.04;59.21;100562.84;18436556;32;20092;-56
2022/10/02 05:41:49;;;;;;;0.25;0.25;;;;;;;16.17;59.53;100558.16;18421787;32;20101;-56
2022/10/02 05:51:58;;;;;;;0.28;0.28;;;;;;;16.45;58.55;100555.75;18436566;32;20418;-56
2022/10/02 06:02:02;;;;;;;0.10;0.10;;;;;;;17.06;56.81;100564.81;18436346;32;20137;-56
2022/10/02 06:12:12;;;;;;;0.10;0.10;;;;;;;18.89;51.64;100569.03;18434506;32;20111;-56
2022/10/02 06:22:17;;;;;;;0.20;0.20;;;;;;;19.49;49.86;100574.00;18434576;32;20093;-56
2022/10/02 06:32:30;;;;;;;0.20;0.20;;;;;;;18.60;51.76;100602.59;18434495;32;20112;-56
2022/10/02 06:42:42;;;;;;;0.20;0.20;;;;;;;18.32;52.92;100607.88;18433998;32;20429;-56
2022/10/02 06:52:51;;;;;;;0.10;0.10;;;;;;;18.13;53.11;100617.25;18433745;32;20166;-56
2022/10/02 07:03:13;;;;;;;0.10;0.10;;;;;;;19.39;50.34;100636.13;18434740;32;20088;-56
2022/10/02 07:13:26;;;;;;;0.10;0.10;;;;;;;19.99;47.60;100643.69;18434375;32;20162;-56
2022/10/02 07:23:40;;;;;;;0.20;0.20;;;;;;;20.03;46.98;100644.44;18432950;32;20102;-56
2022/10/02 07:34:02;;;;;;;0.13;0.13;;;;;;;19.68;48.60;100658.94;18433132;32;20096;-56
2022/10/02 07:44:13;;;;;;;0.10;0.10;;;;;;;19.43;48.48;100684.53;18432490;32;20134;-56
2022/10/02 07:54:30;;;;;;;0.10;0.10;;;;;;;19.11;50.71;100695.31;18432099;32;20092;-56
2022/10/02 08:04:36;;;;;;;0.20;0.20;;;;;;;19.20;49.96;100710.88;18431841;32;20132;-56
2022/10/02 08:14:42;;;;;;;0.20;0.20;;;;;;;18.95;50.75;100709.00;18432674;32;20437;-56
2022/10/02 08:24:49;;;;;;;0.10;0.10;;;;;;;19.07;49.93;100713.06;18431176;32;20115;-56
2022/10/02 08:34:53;;;;;;;0.10;0.10;;;;;;;19.62;50.26;100712.09;18416027;32;20112;-56
2022/10/02 08:45:18;;;;;;;0.43;0.32;;;;;;;19.65;49.67;100721.72;18429999;32;20120;-56
2022/10/02 08:55:52;;;;;;;0.20;0.20;;;;;;;19.72;49.51;100728.50;18429082;32;20105;-56
2022/10/02 09:06:35;;;;;;;0.10;0.10;;;;;;;19.80;49.34;100729.13;18428763;32;20089;-56
2022/10/02 09:16:55;;;;;;;0.10;0.10;;;;;;;20.17;46.14;100726.97;18413921;32;20115;-56
2022/10/02 09:27:31;;;;;;;0.10;0.10;;;;;;;20.19;46.08;100721.56;18413313;32;20119;-56
2022/10/02 09:38:13;;;;;;;0.10;0.10;;;;;;;20.21;47.59;100712.66;18150699;32;20137;-56
2022/10/02 09:48:58;;;;;;;0.10;0.10;;;;;;;19.99;46.70;100709.94;18164975;32;20140;-56
2022/10/02 09:59:36;;;;;;;0.20;0.20;;;;;;;19.62;47.93;100721.81;18159178;32;20122;-56
2022/10/02 10:10:19;;;;;;;0.28;0.28;;;;;;;19.75;46.99;100730.19;18269797;32;20093;-56
2022/10/02 10:20:36;;;;;;;0.10;0.10;;;;;;;19.71;44.65;100720.66;18171052;32;20129;-56
2022/10/02 10:30:57;;;;;;;0.10;0.10;;;;;;;19.57;46.83;100706.09;18170871;32;20174;-56
2022/10/02 10:41:28;;;;;;;0.10;0.10;;;;;;;20.12;47.66;100690.94;18158778;32;20382;-56
2022/10/02 10:51:39;;;;;;;0.10;0.10;;;;;;;20.04;46.69;100686.78;18157587;32;20646;-56
2022/10/02 11:01:51;;;;;;;0.10;0.10;;;;;;;20.14;47.23;100675.84;18232437;32;20480;-56
2022/10/02 11:12:35;;;;;;;0.10;0.10;;;;;;;20.49;45.78;100689.53;18220810;32;20097;-56
2022/10/02 11:23:16;;;;;;;0.10;0.10;;;;;;;20.27;46.07;100677.09;18082732;32;20118;-56
2022/10/02 11:33:33;;;;;;;0.10;0.10;;;;;;;20.71;44.50;100670.09;18169640;32;20183;-56
2022/10/02 11:43:57;;;;;;;0.10;0.10;;;;;;;20.46;45.51;100665.78;18169498;32;20102;-57
2022/10/02 11:54:25;;;;;;;0.20;0.20;;;;;;;20.45;44.72;100664.06;18264508;32;20092;-56
2022/10/02 12:04:39;;;;;;;0.10;0.10;;;;;;;20.17;45.41;100659.81;18413905;32;20401;-56
2022/10/02 12:14:47;;;;;;;0.10;0.10;;;;;;;20.64;46.67;100638.53;18417451;32;20128;-56
2022/10/02 12:35:45;;;;;;;0.10;0.10;;;;;;;20.37;45.37;100616.66;18416403;32;20100;-56
2022/10/02 12:46:18;;;;;;;0.17;0.10;;;;;;;20.49;45.29;100612.66;18419889;32;20111;-56
2022/10/02 12:57:02;;;;;;;0.10;0.10;;;;;;;20.56;45.87;100600.00;18429011;32;20369;-56
2022/10/02 13:07:29;;;;;;;0.10;0.10;;;;;;;20.85;44.77;100600.59;18290667;32;20136;-56
2022/10/02 13:17:39;;;;;;;0.10;0.10;;;;;;;21.10;45.52;100586.25;18291264;32;20128;-57
2022/10/02 13:27:50;;;;;;;0.10;0.10;;;;;;;21.36;45.80;100577.19;18362405;32;20631;-56
2022/10/02 13:38:03;;;;;;;0.10;0.10;;;;;;;20.91;47.09;100563.19;18436359;32;20454;-57
2022/10/02 13:48:13;;;;;;;0.10;0.10;;;;;;;20.88;45.46;100574.81;18435994;32;20111;-56
2022/10/02 13:58:36;;;;;;;0.10;0.10;;;;;;;20.31;47.39;100559.44;18435326;32;20187;-56
2022/10/02 14:09:18;;;;;;;0.10;0.10;;;;;;;20.14;48.80;100548.66;18435133;32;20097;-56
2022/10/02 14:19:44;;;;;;;0.10;0.10;;;;;;;19.92;49.59;100546.81;18420651;32;20097;-56
2022/10/02 14:29:50;;;;;;;0.20;0.20;;;;;;;20.14;49.00;100556.59;18434211;32;20121;-56
2022/10/02 14:39:55;;;;;;;0.20;0.20;;;;;;;19.70;50.86;100537.03;18433422;32;20080;-58
2022/10/02 14:50:20;;;;;;;0.20;0.20;;;;;;;19.76;50.84;100533.28;18419305;32;20093;-56
2022/10/02 15:00:25;;;;;;;0.10;0.10;;;;;;;19.78;51.13;100516.41;18417757;32;20093;-56
2022/10/02 15:10:34;;;;;;;0.20;0.20;;;;;;;19.69;52.32;100498.25;18433611;32;20093;-57
2022/10/02 15:20:50;;;;;;;0.10;0.10;;;;;;;19.43;53.44;100491.31;18433310;32;20088;-56
2022/10/02 15:30:56;;;;;;;0.20;0.20;;;;;;;19.18;53.43;100490.44;18432946;32;20088;-56
2022/10/02 15:41:19;;;;;;;0.30;0.30;;;;;;;18.96;53.27;100477.94;18427243;32;151844;-56
2022/10/02 15:51:39;;;;;;;0.20;0.20;;;;;;;18.98;53.54;100472.59;18417859;32;20451;-57
2022/10/02 16:01:51;;;;;;;0.15;0.15;;;;;;;18.95;54.66;100478.00;18431765;32;20137;-56
2022/10/02 16:12:32;;;;;;;0.20;0.20;;;;;;;18.76;55.84;100491.00;18416767;32;20089;-57
2022/10/02 16:22:57;;;;;;;0.10;0.10;;;;;;;18.62;55.60;100479.16;18430145;32;20132;-55
2022/10/02 16:33:09;;;;;;;0.20;0.20;;;;;;;18.54;56.33;100463.56;18430675;32;20187;-59
2022/10/02 16:43:58;;;;;;;0.20;0.20;;;;;;;18.35;57.34;100484.44;18431070;32;20084;-56
2022/10/02 16:54:12;;;;;;;0.20;0.20;;;;;;;18.17;57.54;100470.94;18165699;32;20098;-56
2022/10/02 17:04:23;;;;;;;0.20;0.20;;;;;;;18.16;56.65;100469.22;17987874;32;20128;-56
2022/10/02 17:14:39;;;;;;;0.30;0.30;;;;;;;18.19;56.99;100470.00;17987314;33;20139;-56
2022/10/02 17:24:49;;;;;;;0.20;0.20;;;;;;;18.11;57.17;100467.63;18180985;32;20093;-56
2022/10/02 17:34:58;;;;;;;0.20;0.20;;;;;;;17.92;57.48;100459.41;18436906;32;20085;-56
2022/10/02 17:45:14;;;;;;;0.28;0.28;;;;;;;17.95;57.02;100461.97;18421521;32;20128;-56
2022/10/02 18:06:19;;;;;;;0.30;0.30;;;;;;;17.92;57.05;100454.13;18422146;32;20105;-56
2022/10/02 18:16:40;;;;;;;0.22;0.22;;;;;;;17.91;56.18;100469.12;18434683;32;20349;-56
2022/10/02 18:27:05;;;;;;;0.20;0.20;;;;;;;17.88;56.11;100464.78;18420555;32;20107;-56
2022/10/02 18:37:32;;;;;;;0.30;0.30;;;;;;;18.06;55.88;100473.06;18418587;32;20539;-56
2022/10/02 18:47:43;;;;;;;0.20;0.20;;;;;;;17.87;55.94;100484.19;18434152;32;20451;-56
2022/10/02 18:57:57;;;;;;;0.20;0.20;;;;;;;18.06;56.30;100488.03;18496988;32;20131;-57
2022/10/02 19:08:15;;;;;;;0.20;0.20;;;;;;;17.80;57.18;100479.16;18473678;32;20100;-56
2022/10/02 19:18:22;;;;;;;0.30;0.30;;;;;;;17.85;56.47;100479.84;18431339;32;20105;-56
2022/10/02 19:28:28;;;;;;;0.20;0.20;;;;;;;17.97;56.75;100463.63;18490478;32;20104;-56
2022/10/02 19:38:35;;;;;;;0.20;0.20;;;;;;;17.65;57.44;100447.03;18491377;32;20429;-56
2022/10/02 19:48:39;;;;;;;0.25;0.25;;;;;;;17.68;57.44;100435.50;18494535;32;20088;-56
2022/10/02 19:58:46;;;;;;;0.22;0.22;;;;;;;17.53;57.99;100423.66;18480734;32;20146;-57
2022/10/02 20:08:54;;;;;;;0.10;0.10;;;;;;;17.60;57.43;100419.94;18494364;32;20178;-56
2022/10/02 20:18:58;;;;;;;0.30;0.30;;;;;;;17.39;58.43;100413.53;18479826;32;20119;-56
2022/10/02 20:29:04;;;;;;;0.30;0.30;;;;;;;17.54;58.27;100402.47;18494493;32;20116;-56
2022/10/02 20:39:13;;;;;;;0.10;0.10;;;;;;;17.55;58.15;100414.78;18494265;32;20490;-56
2022/10/02 20:49:54;;;;;;;0.28;0.28;;;;;;;17.54;57.98;100406.91;18479904;32;20104;-56
2022/10/02 21:00:15;;;;;;;0.20;0.20;;;;;;;17.55;57.50;100396.31;18290995;32;20145;-56
2022/10/02 21:10:54;;;;;;;0.30;0.30;;;;;;;17.38;58.48;100388.06;18291269;32;20110;-57
2022/10/02 21:21:21;;;;;;;0.30;0.30;;;;;;;17.23;59.00;100408.69;18270564;32;20144;-57
2022/10/02 21:31:49;;;;;;;0.20;0.20;;;;;;;17.05;58.99;100408.34;18358958;32;20412;-57
2022/10/02 21:42:18;;;;;;;0.30;0.30;;;;;;;17.26;59.30;100403.34;18491451;32;20096;-57
2022/10/02 21:53:08;;;;;;;0.30;0.30;;;;;;;17.31;58.94;100411.09;18500824;32;20085;-57
2022/10/02 22:03:34;;;;;;;0.30;0.30;;;;;;;17.40;58.60;100407.34;18297273;32;20139;-56
2022/10/02 22:13:39;;;;;;;0.25;0.25;;;;;;;17.19;60.00;100388.63;18297369;32;20129;-56
2022/10/02 22:23:59;;;;;;;0.20;0.20;;;;;;;17.01;59.09;100400.56;18296772;32;20124;-56
2022/10/02 22:34:18;;;;;;;0.20;0.20;;;;;;;16.93;60.08;100398.12;18408897;32;20146;-56
2022/10/02 22:44:30;;;;;;;0.30;0.30;;;;;;;16.87;60.28;100391.25;18498215;32;20121;-56
2022/10/02 22:54:42;;;;;;;0.20;0.20;;;;;;;16.82;60.62;100374.69;18497908;32;20096;-56
2022/10/02 23:04:52;;;;;;;0.30;0.30;;;;;;;16.88;60.24;100349.91;18498191;32;20475;-56
2022/10/02 23:15:03;;;;;;;0.20;0.20;;;;;;;16.49;61.34;100357.12;18498007;32;20085;-56
2022/10/02 23:25:19;;;;;;;0.30;0.30;;;;;;;16.57;60.76;100349.03;18497195;32;20110;-55
2022/10/02 23:35:28;;;;;;;0.25;0.25;;;;;;;16.56;60.85;100357.84;18497344;32;20107;-56
2022/10/02 23:45:37;;;;;;;0.30;0.30;;;;;;;16.35;60.55;100351.41;18498124;32;20085;-55
2022/10/02 23:55:59;;;;;;;0.30;0.30;;;;;;;16.59;60.22;100356.88;18496907;32;20124;-55
